AUL964 UBBB-UWKD
Flight info
| Callsign | AUL964 |
|---|---|
| Flight time | 3h 4m |
| Altitude | 36000 |
| Route | EKRAM Y125 SITON N60 AKT W324 PIRIM N60 KOLIB W324 NIKNA N60 ATR W324 OLAPU M158 URL M161 MOF T793 TONSI |
| Aircraft | B738/M-URKK/S |
Departure
| Time | 2026-05-07 16:37 |
|---|---|
| Airport | Heydar Aliyev International Airport (UBBB) |
Arrival
| Time | 2026-05-07 19:41 |
|---|---|
| Airport | Kazan International Airport (UWKD) |
| Time | Latitude | Longitude | Altitude | Speed | Heading |
|---|---|---|---|---|---|
| 2026-05-07 16:19 | 40.46736 | 50.05150 | 8 ft | 0 kts | 179° |
| 2026-05-07 16:21 | 40.46738 | 50.05150 | 8 ft | 2 kts | 178° |
| 2026-05-07 16:21 | 40.46752 | 50.05149 | 10 ft | 2 kts | 178° |
| 2026-05-07 16:22 | 40.46765 | 50.05148 | 9 ft | 2 kts | 178° |
| 2026-05-07 16:22 | 40.46778 | 50.05148 | 10 ft | 2 kts | 178° |
| 2026-05-07 16:22 | 40.46792 | 50.05147 | 8 ft | 2 kts | 178° |
| 2026-05-07 16:22 | 40.46805 | 50.05147 | 8 ft | 2 kts | 178° |
| 2026-05-07 16:23 | 40.46818 | 50.05146 | 9 ft | 2 kts | 172° |
| 2026-05-07 16:23 | 40.46831 | 50.05141 | 10 ft | 2 kts | 146° |
| 2026-05-07 16:23 | 40.46841 | 50.05129 | 8 ft | 2 kts | 120° |
| 2026-05-07 16:23 | 40.46842 | 50.05127 | 8 ft | 0 kts | 116° |
| 2026-05-07 16:24 | 40.46842 | 50.05126 | 8 ft | 2 kts | 116° |
| 2026-05-07 16:24 | 40.46846 | 50.05116 | 8 ft | 0 kts | 116° |
| 2026-05-07 16:27 | 40.46842 | 50.05129 | 8 ft | 4 kts | 112° |
| 2026-05-07 16:28 | 40.46837 | 50.05174 | 10 ft | 6 kts | 88° |
| 2026-05-07 16:28 | 40.46851 | 50.05222 | 8 ft | 6 kts | 36° |
| 2026-05-07 16:28 | 40.46891 | 50.05228 | 9 ft | 6 kts | 357° |
| 2026-05-07 16:28 | 40.46924 | 50.05251 | 8 ft | 6 kts | 56° |
| 2026-05-07 16:29 | 40.46930 | 50.05301 | 8 ft | 6 kts | 85° |
| 2026-05-07 16:29 | 40.46932 | 50.05362 | 8 ft | 8 kts | 89° |
| 2026-05-07 16:29 | 40.46933 | 50.05434 | 7 ft | 8 kts | 88° |
| 2026-05-07 16:29 | 40.46935 | 50.05505 | 7 ft | 8 kts | 88° |
| 2026-05-07 16:30 | 40.46937 | 50.05573 | 7 ft | 7 kts | 88° |
| 2026-05-07 16:30 | 40.46939 | 50.05638 | 7 ft | 7 kts | 88° |
| 2026-05-07 16:30 | 40.46940 | 50.05702 | 7 ft | 7 kts | 90° |
| 2026-05-07 16:30 | 40.46940 | 50.05765 | 7 ft | 7 kts | 89° |
| 2026-05-07 16:31 | 40.46942 | 50.05826 | 7 ft | 7 kts | 87° |
| 2026-05-07 16:31 | 40.46944 | 50.05885 | 7 ft | 7 kts | 87° |
| 2026-05-07 16:31 | 40.46946 | 50.05944 | 7 ft | 6 kts | 87° |
| 2026-05-07 16:31 | 40.46947 | 50.06002 | 7 ft | 6 kts | 88° |
| 2026-05-07 16:32 | 40.46959 | 50.06056 | 8 ft | 6 kts | 62° |
| 2026-05-07 16:32 | 40.46992 | 50.06088 | 7 ft | 6 kts | 17° |
| 2026-05-07 16:32 | 40.47034 | 50.06088 | 7 ft | 6 kts | 357° |
| 2026-05-07 16:32 | 40.47075 | 50.06087 | 7 ft | 6 kts | 359° |
| 2026-05-07 16:33 | 40.47130 | 50.06086 | 7 ft | 10 kts | 360° |
| 2026-05-07 16:33 | 40.47239 | 50.06085 | 7 ft | 22 kts | 359° |
| 2026-05-07 16:33 | 40.47397 | 50.06083 | 7 ft | 23 kts | 360° |
| 2026-05-07 16:33 | 40.47551 | 50.06081 | 7 ft | 22 kts | 359° |
| 2026-05-07 16:34 | 40.47701 | 50.06077 | 9 ft | 21 kts | 359° |
| 2026-05-07 16:34 | 40.47847 | 50.06076 | 7 ft | 21 kts | 359° |
| 2026-05-07 16:34 | 40.47989 | 50.06075 | 7 ft | 20 kts | 359° |
| 2026-05-07 16:34 | 40.48125 | 50.06073 | 7 ft | 19 kts | 359° |
| 2026-05-07 16:35 | 40.48258 | 50.06071 | 7 ft | 19 kts | 358° |
| 2026-05-07 16:35 | 40.48382 | 50.06068 | 7 ft | 13 kts | 0° |
| 2026-05-07 16:35 | 40.48453 | 50.06068 | 7 ft | 10 kts | 4° |
| 2026-05-07 16:35 | 40.48502 | 50.06120 | 8 ft | 10 kts | 78° |
| 2026-05-07 16:36 | 40.48502 | 50.06208 | 7 ft | 9 kts | 96° |
| 2026-05-07 16:36 | 40.48466 | 50.06275 | 7 ft | 9 kts | 156° |
| 2026-05-07 16:36 | 40.48401 | 50.06281 | 7 ft | 9 kts | 179° |
| 2026-05-07 16:36 | 40.48325 | 50.06282 | 7 ft | 21 kts | 179° |
| 2026-05-07 16:37 | 40.47987 | 50.06288 | 10 ft | 83 kts | 179° |
| 2026-05-07 16:37 | 40.47178 | 50.06303 | 7 ft | 147 kts | 178° |
| 2026-05-07 16:37 | 40.46053 | 50.06288 | 368 ft | 173 kts | 179° |
| 2026-05-07 16:37 | 40.44793 | 50.06247 | 1001 ft | 191 kts | 181° |
| 2026-05-07 16:38 | 40.43397 | 50.06220 | 1616 ft | 207 kts | 180° |
| 2026-05-07 16:38 | 40.41927 | 50.06199 | 2280 ft | 216 kts | 180° |
| 2026-05-07 16:38 | 40.40369 | 50.06234 | 2627 ft | 236 kts | 177° |
| 2026-05-07 16:38 | 40.38672 | 50.06320 | 3023 ft | 248 kts | 178° |
| 2026-05-07 16:39 | 40.36988 | 50.06760 | 3679 ft | 249 kts | 153° |
| 2026-05-07 16:39 | 40.35566 | 50.08066 | 4309 ft | 254 kts | 140° |
| 2026-05-07 16:39 | 40.34243 | 50.09623 | 4768 ft | 269 kts | 139° |
| 2026-05-07 16:39 | 40.32828 | 50.11312 | 5348 ft | 280 kts | 139° |
| 2026-05-07 16:40 | 40.31362 | 50.13033 | 6088 ft | 285 kts | 140° |
| 2026-05-07 16:40 | 40.29868 | 50.14773 | 6828 ft | 290 kts | 139° |
| 2026-05-07 16:40 | 40.28711 | 50.16954 | 7540 ft | 298 kts | 112° |
| 2026-05-07 16:40 | 40.28345 | 50.19626 | 7946 ft | 301 kts | 91° |
| 2026-05-07 16:41 | 40.28323 | 50.22388 | 8022 ft | 305 kts | 90° |
| 2026-05-07 16:41 | 40.28315 | 50.25154 | 8016 ft | 303 kts | 90° |
| 2026-05-07 16:41 | 40.28293 | 50.27880 | 8027 ft | 303 kts | 91° |
| 2026-05-07 16:41 | 40.28311 | 50.30638 | 8031 ft | 305 kts | 84° |
| 2026-05-07 16:42 | 40.28643 | 50.33408 | 8451 ft | 310 kts | 78° |
| 2026-05-07 16:42 | 40.29051 | 50.36185 | 9270 ft | 311 kts | 79° |
| 2026-05-07 16:42 | 40.29446 | 50.38986 | 10038 ft | 315 kts | 79° |
| 2026-05-07 16:42 | 40.30139 | 50.41748 | 10425 ft | 330 kts | 58° |
| 2026-05-07 16:43 | 40.31717 | 50.44004 | 10594 ft | 346 kts | 30° |
| 2026-05-07 16:43 | 40.33982 | 50.45134 | 10759 ft | 357 kts | 3° |
| 2026-05-07 16:43 | 40.36499 | 50.45224 | 11068 ft | 368 kts | 355° |
| 2026-05-07 16:43 | 40.39050 | 50.45169 | 11604 ft | 374 kts | 355° |
| 2026-05-07 16:44 | 40.41662 | 50.45106 | 12266 ft | 377 kts | 355° |
| 2026-05-07 16:44 | 40.44299 | 50.45061 | 12940 ft | 381 kts | 355° |
| 2026-05-07 16:44 | 40.46967 | 50.45036 | 13603 ft | 386 kts | 355° |
| 2026-05-07 16:44 | 40.49669 | 50.45026 | 14224 ft | 391 kts | 355° |
| 2026-05-07 16:45 | 40.52403 | 50.45024 | 14846 ft | 395 kts | 355° |
| 2026-05-07 16:45 | 40.55165 | 50.45025 | 15474 ft | 399 kts | 355° |
| 2026-05-07 16:45 | 40.57963 | 50.45025 | 16097 ft | 404 kts | 355° |
| 2026-05-07 16:45 | 40.60751 | 50.45018 | 16688 ft | 408 kts | 353° |
| 2026-05-07 16:46 | 40.63522 | 50.44399 | 17241 ft | 402 kts | 334° |
| 2026-05-07 16:46 | 40.65974 | 50.42728 | 17884 ft | 395 kts | 322° |
| 2026-05-07 16:46 | 40.68288 | 50.40748 | 18492 ft | 398 kts | 320° |
| 2026-05-07 16:46 | 40.70602 | 50.38713 | 19020 ft | 402 kts | 320° |
| 2026-05-07 16:47 | 40.72935 | 50.36658 | 19594 ft | 404 kts | 320° |
| 2026-05-07 16:47 | 40.75286 | 50.34600 | 20152 ft | 407 kts | 320° |
| 2026-05-07 16:47 | 40.77656 | 50.32543 | 20708 ft | 410 kts | 320° |
| 2026-05-07 16:47 | 40.80048 | 50.30476 | 21245 ft | 413 kts | 320° |
| 2026-05-07 16:48 | 40.82430 | 50.28423 | 21768 ft | 415 kts | 320° |
| 2026-05-07 16:48 | 40.84858 | 50.26334 | 22274 ft | 418 kts | 320° |
| 2026-05-07 16:48 | 40.87303 | 50.24230 | 22794 ft | 421 kts | 320° |
| 2026-05-07 16:48 | 40.89763 | 50.22112 | 23287 ft | 424 kts | 320° |
| 2026-05-07 16:49 | 40.92239 | 50.19977 | 23762 ft | 426 kts | 319° |
| 2026-05-07 16:49 | 40.94729 | 50.17827 | 24159 ft | 429 kts | 319° |
| 2026-05-07 16:49 | 40.97232 | 50.15664 | 24548 ft | 431 kts | 319° |
| 2026-05-07 16:49 | 40.99752 | 50.13485 | 24930 ft | 434 kts | 319° |
| 2026-05-07 16:50 | 41.02255 | 50.11318 | 25302 ft | 436 kts | 319° |
| 2026-05-07 16:50 | 41.04801 | 50.09113 | 25676 ft | 439 kts | 319° |
| 2026-05-07 16:50 | 41.07360 | 50.06894 | 26036 ft | 441 kts | 319° |
| 2026-05-07 16:50 | 41.09940 | 50.04665 | 26381 ft | 445 kts | 321° |
| 2026-05-07 16:51 | 41.12846 | 50.03003 | 26673 ft | 468 kts | 339° |
| 2026-05-07 16:51 | 41.16143 | 50.02551 | 27023 ft | 488 kts | 356° |
| 2026-05-07 16:51 | 41.19532 | 50.03416 | 27352 ft | 504 kts | 12° |
| 2026-05-07 16:51 | 41.22864 | 50.04951 | 27670 ft | 509 kts | 14° |
| 2026-05-07 16:52 | 41.26197 | 50.06584 | 27925 ft | 513 kts | 15° |
| 2026-05-07 16:52 | 41.29515 | 50.08174 | 28177 ft | 515 kts | 14° |
| 2026-05-07 16:52 | 41.32912 | 50.09726 | 28487 ft | 517 kts | 13° |
| 2026-05-07 16:52 | 41.36332 | 50.11247 | 28772 ft | 519 kts | 13° |
| 2026-05-07 16:53 | 41.39762 | 50.12767 | 29065 ft | 521 kts | 13° |
| 2026-05-07 16:53 | 41.43206 | 50.14299 | 29426 ft | 521 kts | 13° |
| 2026-05-07 16:53 | 41.46639 | 50.15834 | 29852 ft | 520 kts | 13° |
| 2026-05-07 16:53 | 41.50066 | 50.17372 | 30263 ft | 519 kts | 13° |
| 2026-05-07 16:54 | 41.53487 | 50.18909 | 30605 ft | 519 kts | 13° |
| 2026-05-07 16:54 | 41.56856 | 50.20425 | 30937 ft | 518 kts | 13° |
| 2026-05-07 16:54 | 41.60267 | 50.21960 | 31281 ft | 517 kts | 13° |
| 2026-05-07 16:54 | 41.63677 | 50.23497 | 31631 ft | 516 kts | 13° |
| 2026-05-07 16:55 | 41.67076 | 50.25029 | 31974 ft | 515 kts | 13° |
| 2026-05-07 16:55 | 41.70467 | 50.26560 | 32293 ft | 515 kts | 13° |
| 2026-05-07 16:55 | 41.73860 | 50.28093 | 32615 ft | 514 kts | 13° |
| 2026-05-07 16:55 | 41.77248 | 50.29625 | 32941 ft | 514 kts | 13° |
| 2026-05-07 16:56 | 41.80630 | 50.31157 | 33273 ft | 513 kts | 13° |
| 2026-05-07 16:56 | 41.84010 | 50.32690 | 33577 ft | 512 kts | 13° |
| 2026-05-07 16:56 | 41.90713 | 50.35734 | 34172 ft | 512 kts | 13° |
| 2026-05-07 16:57 | 41.94086 | 50.37265 | 34432 ft | 511 kts | 13° |
| 2026-05-07 16:57 | 41.97495 | 50.38494 | 34666 ft | 504 kts | 4° |
| 2026-05-07 16:57 | 42.00945 | 50.39209 | 34893 ft | 501 kts | 1° |
| 2026-05-07 16:57 | 42.04397 | 50.39805 | 35125 ft | 500 kts | 1° |
| 2026-05-07 16:58 | 42.07849 | 50.40374 | 35406 ft | 499 kts | 1° |
| 2026-05-07 16:58 | 42.11288 | 50.40954 | 35664 ft | 498 kts | 1° |
| 2026-05-07 16:58 | 42.14726 | 50.41559 | 35884 ft | 498 kts | 1° |
| 2026-05-07 16:58 | 42.18121 | 50.42178 | 36072 ft | 499 kts | 2° |
| 2026-05-07 16:59 | 42.25018 | 50.43469 | 36098 ft | 501 kts | 2° |
| 2026-05-07 16:59 | 42.31906 | 50.44768 | 36100 ft | 499 kts | 2° |
| 2026-05-07 17:00 | 42.38771 | 50.46057 | 36095 ft | 497 kts | 2° |
| 2026-05-07 17:00 | 42.45555 | 50.47599 | 36089 ft | 502 kts | 10° |
| 2026-05-07 17:01 | 42.52259 | 50.50276 | 36094 ft | 503 kts | 12° |
| 2026-05-07 17:01 | 42.58933 | 50.53103 | 36095 ft | 503 kts | 12° |
| 2026-05-07 17:02 | 42.65619 | 50.55886 | 36090 ft | 503 kts | 12° |
| 2026-05-07 17:02 | 42.72274 | 50.58608 | 36093 ft | 503 kts | 12° |
| 2026-05-07 17:03 | 42.78980 | 50.61341 | 36092 ft | 503 kts | 12° |
| 2026-05-07 17:03 | 42.85691 | 50.64085 | 36089 ft | 504 kts | 12° |
| 2026-05-07 17:04 | 42.92409 | 50.66840 | 36090 ft | 504 kts | 12° |
| 2026-05-07 17:04 | 42.99130 | 50.69605 | 36085 ft | 504 kts | 12° |
| 2026-05-07 17:05 | 43.05805 | 50.72357 | 36080 ft | 504 kts | 13° |
| 2026-05-07 17:05 | 43.12521 | 50.75132 | 36070 ft | 504 kts | 13° |
| 2026-05-07 17:06 | 43.19227 | 50.77910 | 36065 ft | 503 kts | 13° |
| 2026-05-07 17:06 | 43.25930 | 50.80692 | 36062 ft | 503 kts | 13° |
| 2026-05-07 17:07 | 43.32573 | 50.83456 | 36063 ft | 502 kts | 13° |
| 2026-05-07 17:07 | 43.39245 | 50.86238 | 36061 ft | 501 kts | 13° |
| 2026-05-07 17:08 | 43.45904 | 50.89022 | 36052 ft | 500 kts | 14° |
| 2026-05-07 17:08 | 43.52501 | 50.91785 | 36050 ft | 499 kts | 14° |
| 2026-05-07 17:09 | 43.59130 | 50.94568 | 36036 ft | 498 kts | 14° |
| 2026-05-07 17:09 | 43.65753 | 50.97356 | 36024 ft | 497 kts | 14° |
| 2026-05-07 17:10 | 43.72360 | 51.00143 | 36023 ft | 497 kts | 14° |
| 2026-05-07 17:10 | 43.78968 | 51.02937 | 36023 ft | 496 kts | 14° |
| 2026-05-07 17:11 | 43.85526 | 51.05716 | 36024 ft | 497 kts | 14° |
| 2026-05-07 17:11 | 43.92227 | 51.07909 | 36041 ft | 494 kts | 7° |
| 2026-05-07 17:12 | 43.99000 | 51.09461 | 36025 ft | 494 kts | 6° |
| 2026-05-07 17:12 | 44.05792 | 51.11002 | 36025 ft | 495 kts | 7° |
| 2026-05-07 17:13 | 44.12531 | 51.12620 | 36027 ft | 495 kts | 7° |
| 2026-05-07 17:13 | 44.19323 | 51.14294 | 36025 ft | 496 kts | 7° |
| 2026-05-07 17:14 | 44.26118 | 51.15978 | 36021 ft | 496 kts | 7° |
| 2026-05-07 17:14 | 44.32913 | 51.17661 | 36012 ft | 496 kts | 8° |
| 2026-05-07 17:15 | 44.39666 | 51.19335 | 36009 ft | 496 kts | 8° |
| 2026-05-07 17:15 | 44.46462 | 51.21023 | 36002 ft | 496 kts | 8° |
| 2026-05-07 17:16 | 44.53251 | 51.22714 | 35994 ft | 495 kts | 8° |
| 2026-05-07 17:16 | 44.60028 | 51.24406 | 35988 ft | 494 kts | 8° |
| 2026-05-07 17:17 | 44.66752 | 51.26088 | 35978 ft | 494 kts | 8° |
| 2026-05-07 17:17 | 44.73516 | 51.27785 | 35977 ft | 493 kts | 8° |
| 2026-05-07 17:18 | 44.80268 | 51.29482 | 35967 ft | 493 kts | 8° |
| 2026-05-07 17:18 | 44.87030 | 51.30984 | 35963 ft | 492 kts | 6° |
| 2026-05-07 17:19 | 44.93801 | 51.32342 | 35957 ft | 491 kts | 6° |
| 2026-05-07 17:19 | 45.00519 | 51.33708 | 35954 ft | 491 kts | 6° |
| 2026-05-07 17:20 | 45.07269 | 51.35114 | 35950 ft | 490 kts | 7° |
| 2026-05-07 17:20 | 45.14019 | 51.36535 | 35946 ft | 490 kts | 7° |
| 2026-05-07 17:21 | 45.20760 | 51.37957 | 35946 ft | 490 kts | 7° |
| 2026-05-07 17:21 | 45.27456 | 51.39371 | 35939 ft | 489 kts | 7° |
| 2026-05-07 17:22 | 45.34184 | 51.40795 | 35935 ft | 489 kts | 7° |
| 2026-05-07 17:22 | 45.40918 | 51.42224 | 35933 ft | 489 kts | 7° |
| 2026-05-07 17:23 | 45.47639 | 51.43653 | 35927 ft | 488 kts | 7° |
| 2026-05-07 17:23 | 45.54361 | 51.45086 | 35916 ft | 488 kts | 7° |
| 2026-05-07 17:24 | 45.61027 | 51.46511 | 35916 ft | 488 kts | 7° |
| 2026-05-07 17:24 | 45.67738 | 51.47948 | 35911 ft | 487 kts | 7° |
| 2026-05-07 17:25 | 45.74445 | 51.49389 | 35905 ft | 487 kts | 7° |
| 2026-05-07 17:25 | 45.81149 | 51.50834 | 35899 ft | 487 kts | 7° |
| 2026-05-07 17:26 | 45.87806 | 51.52272 | 35897 ft | 487 kts | 7° |
| 2026-05-07 17:26 | 45.94502 | 51.53722 | 35894 ft | 487 kts | 7° |
| 2026-05-07 17:27 | 46.01214 | 51.55179 | 35901 ft | 491 kts | 7° |
| 2026-05-07 17:27 | 46.07947 | 51.56645 | 35883 ft | 487 kts | 7° |
| 2026-05-07 17:28 | 46.14596 | 51.58097 | 35872 ft | 480 kts | 7° |
| 2026-05-07 17:28 | 46.21146 | 51.59529 | 35877 ft | 479 kts | 7° |
| 2026-05-07 17:29 | 46.27727 | 51.60971 | 35871 ft | 478 kts | 7° |
| 2026-05-07 17:29 | 46.34300 | 51.62415 | 35867 ft | 478 kts | 7° |
| 2026-05-07 17:30 | 46.40871 | 51.63863 | 35866 ft | 478 kts | 7° |
| 2026-05-07 17:30 | 46.47408 | 51.65301 | 35856 ft | 478 kts | 7° |
| 2026-05-07 17:31 | 46.53987 | 51.66741 | 35859 ft | 478 kts | 7° |
| 2026-05-07 17:31 | 46.60571 | 51.68186 | 35853 ft | 479 kts | 7° |
| 2026-05-07 17:32 | 46.64508 | 51.69052 | 35848 ft | 479 kts | 7° |
| 2026-05-07 17:32 | 46.65435 | 51.69256 | 35850 ft | 479 kts | 7° |
| 2026-05-07 17:33 | 46.71975 | 51.70700 | 35844 ft | 479 kts | 7° |
| 2026-05-07 17:33 | 46.78561 | 51.72157 | 35841 ft | 478 kts | 7° |
| 2026-05-07 17:34 | 46.85138 | 51.73616 | 35839 ft | 478 kts | 7° |
| 2026-05-07 17:34 | 46.91334 | 51.74993 | 35833 ft | 478 kts | 7° |
| 2026-05-07 17:38 | 46.95349 | 51.75888 | 35832 ft | 477 kts | 7° |
| 2026-05-07 17:38 | 47.00713 | 51.77085 | 35831 ft | 477 kts | 7° |
| 2026-05-07 17:39 | 47.04095 | 51.77841 | 35833 ft | 477 kts | 7° |
| 2026-05-07 17:39 | 47.10609 | 51.79300 | 35831 ft | 476 kts | 7° |
| 2026-05-07 17:40 | 47.17176 | 51.80174 | 35830 ft | 473 kts | 357° |
| 2026-05-07 17:40 | 47.23748 | 51.79759 | 35826 ft | 472 kts | 355° |
| 2026-05-07 17:41 | 47.30298 | 51.79253 | 35826 ft | 471 kts | 355° |
| 2026-05-07 17:41 | 47.36847 | 51.78818 | 35824 ft | 471 kts | 356° |
| 2026-05-07 17:42 | 47.43345 | 51.78430 | 35824 ft | 470 kts | 356° |
| 2026-05-07 17:42 | 47.48204 | 51.78144 | 35820 ft | 470 kts | 356° |
| 2026-05-07 17:43 | 47.52183 | 51.77909 | 35820 ft | 469 kts | 356° |
| 2026-05-07 17:43 | 47.56982 | 51.77624 | 35820 ft | 469 kts | 356° |
| 2026-05-07 17:44 | 47.62200 | 51.77311 | 35819 ft | 469 kts | 356° |
| 2026-05-07 17:44 | 47.62256 | 51.77308 | 35820 ft | 469 kts | 356° |
| 2026-05-07 17:45 | 47.68743 | 51.76918 | 35822 ft | 468 kts | 356° |
| 2026-05-07 17:45 | 47.74562 | 51.76568 | 35822 ft | 468 kts | 356° |
| 2026-05-07 17:46 | 47.76436 | 51.76455 | 35824 ft | 468 kts | 356° |
| 2026-05-07 17:46 | 47.77951 | 51.76364 | 35826 ft | 468 kts | 356° |
| 2026-05-07 17:47 | 47.79976 | 51.76242 | 35826 ft | 468 kts | 356° |
| 2026-05-07 17:47 | 47.84000 | 51.75999 | 35825 ft | 467 kts | 356° |
| 2026-05-07 17:48 | 47.88134 | 51.75748 | 35825 ft | 467 kts | 356° |
| 2026-05-07 17:48 | 47.89718 | 51.75651 | 35823 ft | 467 kts | 356° |
| 2026-05-07 17:49 | 47.94987 | 51.75324 | 35822 ft | 467 kts | 356° |
| 2026-05-07 17:49 | 48.01480 | 51.74919 | 35825 ft | 467 kts | 356° |
| 2026-05-07 17:50 | 48.07923 | 51.74516 | 35826 ft | 466 kts | 356° |
| 2026-05-07 17:50 | 48.14406 | 51.74111 | 35830 ft | 466 kts | 356° |
| 2026-05-07 17:51 | 48.20881 | 51.73705 | 35827 ft | 466 kts | 356° |
| 2026-05-07 17:51 | 48.27358 | 51.73299 | 35824 ft | 465 kts | 356° |
| 2026-05-07 17:52 | 48.33821 | 51.72892 | 35825 ft | 465 kts | 356° |
| 2026-05-07 17:52 | 48.40246 | 51.72486 | 35837 ft | 465 kts | 356° |
| 2026-05-07 17:53 | 48.46707 | 51.72077 | 35836 ft | 465 kts | 356° |
| 2026-05-07 17:53 | 48.53168 | 51.71667 | 35841 ft | 465 kts | 356° |
| 2026-05-07 17:54 | 48.59626 | 51.71256 | 35843 ft | 464 kts | 356° |
| 2026-05-07 17:54 | 48.66083 | 51.70844 | 35830 ft | 464 kts | 356° |
| 2026-05-07 17:55 | 48.72500 | 51.70434 | 35848 ft | 464 kts | 356° |
| 2026-05-07 17:55 | 48.78953 | 51.70020 | 35842 ft | 464 kts | 357° |
| 2026-05-07 17:56 | 48.84271 | 51.69679 | 35847 ft | 464 kts | 357° |
| 2026-05-07 17:56 | 48.87422 | 51.69476 | 35850 ft | 464 kts | 357° |
| 2026-05-07 17:57 | 48.91516 | 51.69212 | 35857 ft | 464 kts | 357° |
| 2026-05-07 17:57 | 48.95754 | 51.68938 | 35855 ft | 464 kts | 357° |
| 2026-05-07 17:58 | 49.02205 | 51.68521 | 35853 ft | 464 kts | 357° |
| 2026-05-07 17:58 | 49.08651 | 51.68102 | 35853 ft | 464 kts | 357° |
| 2026-05-07 17:59 | 49.15099 | 51.67681 | 35851 ft | 464 kts | 357° |
| 2026-05-07 17:59 | 49.21504 | 51.67261 | 35850 ft | 463 kts | 357° |
| 2026-05-07 18:00 | 49.27942 | 51.66838 | 35851 ft | 463 kts | 357° |
| 2026-05-07 18:00 | 49.34380 | 51.66415 | 35849 ft | 463 kts | 357° |
| 2026-05-07 18:01 | 49.40819 | 51.65990 | 35853 ft | 463 kts | 357° |
| 2026-05-07 18:01 | 49.47211 | 51.65567 | 35853 ft | 463 kts | 357° |
| 2026-05-07 18:02 | 49.56855 | 51.64927 | 35855 ft | 462 kts | 358° |
| 2026-05-07 18:03 | 49.63274 | 51.64499 | 35841 ft | 462 kts | 358° |
| 2026-05-07 18:03 | 49.69650 | 51.64074 | 35847 ft | 461 kts | 358° |
| 2026-05-07 18:04 | 49.76062 | 51.63644 | 35859 ft | 461 kts | 358° |
| 2026-05-07 18:04 | 49.82465 | 51.63215 | 35853 ft | 460 kts | 358° |
| 2026-05-07 18:05 | 49.88862 | 51.62784 | 35848 ft | 460 kts | 358° |
| 2026-05-07 18:05 | 49.95199 | 51.62356 | 35852 ft | 459 kts | 358° |
| 2026-05-07 18:06 | 50.01575 | 51.61925 | 35852 ft | 458 kts | 358° |
| 2026-05-07 18:06 | 50.07933 | 51.61494 | 35856 ft | 458 kts | 358° |
| 2026-05-07 18:07 | 50.10664 | 51.61308 | 35851 ft | 457 kts | 358° |
| 2026-05-07 18:07 | 50.16891 | 51.60884 | 35848 ft | 457 kts | 358° |
| 2026-05-07 18:08 | 50.23236 | 51.60451 | 35847 ft | 457 kts | 358° |
| 2026-05-07 18:08 | 50.29584 | 51.60016 | 35844 ft | 456 kts | 358° |
| 2026-05-07 18:09 | 50.35930 | 51.59581 | 35844 ft | 456 kts | 358° |
| 2026-05-07 18:09 | 50.42228 | 51.59147 | 35841 ft | 456 kts | 358° |
| 2026-05-07 18:10 | 50.48563 | 51.58727 | 35853 ft | 456 kts | 358° |
| 2026-05-07 18:10 | 50.54902 | 51.58320 | 35854 ft | 456 kts | 359° |
| 2026-05-07 18:11 | 50.61236 | 51.57911 | 35849 ft | 455 kts | 359° |
| 2026-05-07 18:11 | 50.67560 | 51.57499 | 35853 ft | 455 kts | 359° |
| 2026-05-07 18:12 | 50.73894 | 51.57085 | 35852 ft | 455 kts | 359° |
| 2026-05-07 18:12 | 50.80174 | 51.56673 | 35854 ft | 455 kts | 359° |
| 2026-05-07 18:13 | 50.86503 | 51.56257 | 35866 ft | 455 kts | 359° |
| 2026-05-07 18:13 | 50.92831 | 51.55839 | 35879 ft | 455 kts | 359° |
| 2026-05-07 18:14 | 50.99151 | 51.55422 | 35896 ft | 455 kts | 359° |
| 2026-05-07 18:14 | 51.05441 | 51.55005 | 35910 ft | 455 kts | 359° |
| 2026-05-07 18:15 | 51.11756 | 51.54382 | 35902 ft | 456 kts | 351° |
| 2026-05-07 18:15 | 51.17794 | 51.51261 | 35913 ft | 460 kts | 335° |
| 2026-05-07 18:16 | 51.23219 | 51.45781 | 35909 ft | 462 kts | 327° |
| 2026-05-07 18:16 | 51.28520 | 51.39970 | 35896 ft | 462 kts | 327° |
| 2026-05-07 18:17 | 51.33824 | 51.34257 | 35885 ft | 463 kts | 328° |
| 2026-05-07 18:17 | 51.39179 | 51.28543 | 35870 ft | 463 kts | 328° |
| 2026-05-07 18:18 | 51.44532 | 51.22816 | 35863 ft | 463 kts | 328° |
| 2026-05-07 18:18 | 51.49907 | 51.17122 | 35862 ft | 463 kts | 328° |
| 2026-05-07 18:19 | 51.55294 | 51.11449 | 35862 ft | 463 kts | 328° |
| 2026-05-07 18:19 | 51.60678 | 51.05748 | 35868 ft | 463 kts | 328° |
| 2026-05-07 18:20 | 51.66053 | 51.00145 | 35862 ft | 463 kts | 332° |
| 2026-05-07 18:20 | 51.72022 | 50.96434 | 35876 ft | 460 kts | 346° |
| 2026-05-07 18:21 | 51.78239 | 50.93911 | 35862 ft | 461 kts | 347° |
| 2026-05-07 18:21 | 51.84453 | 50.91335 | 35866 ft | 461 kts | 346° |
| 2026-05-07 18:22 | 51.90623 | 50.88679 | 35871 ft | 462 kts | 346° |
| 2026-05-07 18:22 | 51.96837 | 50.85996 | 35869 ft | 462 kts | 346° |
| 2026-05-07 18:23 | 52.03059 | 50.83337 | 35872 ft | 463 kts | 346° |
| 2026-05-07 18:23 | 52.09294 | 50.80673 | 35870 ft | 463 kts | 346° |
| 2026-05-07 18:24 | 52.15520 | 50.78000 | 35870 ft | 463 kts | 346° |
| 2026-05-07 18:24 | 52.21721 | 50.75327 | 35873 ft | 464 kts | 346° |
| 2026-05-07 18:25 | 52.27955 | 50.72632 | 35874 ft | 464 kts | 345° |
| 2026-05-07 18:25 | 52.34200 | 50.69925 | 35875 ft | 464 kts | 345° |
| 2026-05-07 18:26 | 52.40434 | 50.67214 | 35876 ft | 464 kts | 345° |
| 2026-05-07 18:26 | 52.46677 | 50.64491 | 35880 ft | 464 kts | 345° |
| 2026-05-07 18:27 | 52.52916 | 50.61763 | 35878 ft | 464 kts | 345° |
| 2026-05-07 18:27 | 52.59142 | 50.59030 | 35880 ft | 463 kts | 345° |
| 2026-05-07 18:28 | 52.65331 | 50.56302 | 35886 ft | 463 kts | 345° |
| 2026-05-07 18:28 | 52.71560 | 50.53550 | 35889 ft | 463 kts | 345° |
| 2026-05-07 18:29 | 52.77779 | 50.50796 | 35890 ft | 463 kts | 345° |
| 2026-05-07 18:29 | 52.84001 | 50.48032 | 35894 ft | 463 kts | 345° |
| 2026-05-07 18:30 | 52.90224 | 50.45259 | 35898 ft | 463 kts | 345° |
| 2026-05-07 18:30 | 52.96387 | 50.42503 | 35897 ft | 462 kts | 345° |
| 2026-05-07 18:31 | 53.02598 | 50.39718 | 35903 ft | 462 kts | 345° |
| 2026-05-07 18:31 | 53.08790 | 50.36933 | 35907 ft | 461 kts | 345° |
| 2026-05-07 18:32 | 53.14980 | 50.34141 | 35909 ft | 460 kts | 345° |
| 2026-05-07 18:32 | 53.21155 | 50.31347 | 35918 ft | 460 kts | 345° |
| 2026-05-07 18:33 | 53.27336 | 50.28542 | 35926 ft | 460 kts | 345° |
| 2026-05-07 18:33 | 53.33461 | 50.25754 | 35930 ft | 459 kts | 345° |
| 2026-05-07 18:34 | 53.39660 | 50.22923 | 35940 ft | 459 kts | 345° |
| 2026-05-07 18:34 | 53.45770 | 50.20126 | 35936 ft | 458 kts | 345° |
| 2026-05-07 18:35 | 53.51914 | 50.17311 | 35938 ft | 458 kts | 345° |
| 2026-05-07 18:35 | 53.58100 | 50.14745 | 35940 ft | 457 kts | 347° |
| 2026-05-07 18:36 | 53.64290 | 50.12286 | 35938 ft | 457 kts | 346° |
| 2026-05-07 18:36 | 53.70471 | 50.09792 | 35936 ft | 455 kts | 346° |
| 2026-05-07 18:37 | 53.76556 | 50.07301 | 35930 ft | 450 kts | 346° |
| 2026-05-07 18:37 | 53.79575 | 50.06060 | 35722 ft | 443 kts | 346° |
| 2026-05-07 18:37 | 53.82547 | 50.04835 | 35109 ft | 441 kts | 346° |
| 2026-05-07 18:37 | 53.85538 | 50.03602 | 34369 ft | 443 kts | 346° |
| 2026-05-07 18:38 | 53.88548 | 50.02359 | 33538 ft | 447 kts | 347° |
| 2026-05-07 18:38 | 53.91574 | 50.01109 | 32616 ft | 450 kts | 347° |
| 2026-05-07 18:38 | 53.94631 | 49.99843 | 31772 ft | 452 kts | 347° |
| 2026-05-07 18:38 | 53.97612 | 49.98607 | 31854 ft | 432 kts | 347° |
| 2026-05-07 18:39 | 54.00543 | 49.97390 | 31840 ft | 436 kts | 347° |
| 2026-05-07 18:39 | 54.03521 | 49.96153 | 31715 ft | 447 kts | 347° |
| 2026-05-07 18:39 | 54.06578 | 49.94880 | 31462 ft | 458 kts | 347° |
| 2026-05-07 18:39 | 54.09653 | 49.93595 | 31218 ft | 462 kts | 347° |
| 2026-05-07 18:40 | 54.12770 | 49.92288 | 30960 ft | 460 kts | 347° |
| 2026-05-07 18:40 | 54.15855 | 49.90993 | 30707 ft | 456 kts | 347° |
| 2026-05-07 18:40 | 54.18937 | 49.89697 | 30464 ft | 457 kts | 347° |
| 2026-05-07 18:40 | 54.22028 | 49.88397 | 30223 ft | 458 kts | 347° |
| 2026-05-07 18:41 | 54.25117 | 49.87095 | 29973 ft | 458 kts | 347° |
| 2026-05-07 18:41 | 54.28212 | 49.85790 | 29685 ft | 458 kts | 347° |
| 2026-05-07 18:41 | 54.31304 | 49.84483 | 29404 ft | 456 kts | 347° |
| 2026-05-07 18:41 | 54.34373 | 49.83184 | 29134 ft | 454 kts | 347° |
| 2026-05-07 18:42 | 54.36405 | 49.82384 | 28927 ft | 451 kts | 349° |
| 2026-05-07 18:42 | 54.39494 | 49.81499 | 28658 ft | 448 kts | 352° |
| 2026-05-07 18:42 | 54.42572 | 49.80779 | 28381 ft | 445 kts | 353° |
| 2026-05-07 18:42 | 54.45635 | 49.80108 | 28110 ft | 443 kts | 353° |
| 2026-05-07 18:43 | 54.49669 | 49.79212 | 27751 ft | 440 kts | 353° |
| 2026-05-07 18:43 | 54.52695 | 49.78511 | 27488 ft | 438 kts | 353° |
| 2026-05-07 18:43 | 54.54696 | 49.78036 | 27315 ft | 437 kts | 352° |
| 2026-05-07 18:43 | 54.58705 | 49.77068 | 26872 ft | 433 kts | 352° |
| 2026-05-07 18:44 | 54.60675 | 49.76588 | 26449 ft | 430 kts | 352° |
| 2026-05-07 18:44 | 54.63588 | 49.75877 | 26286 ft | 415 kts | 352° |
| 2026-05-07 18:44 | 54.66397 | 49.75190 | 26192 ft | 399 kts | 352° |
| 2026-05-07 18:44 | 54.69096 | 49.74531 | 26110 ft | 385 kts | 352° |
| 2026-05-07 18:45 | 54.71705 | 49.73893 | 26018 ft | 372 kts | 352° |
| 2026-05-07 18:45 | 54.74225 | 49.73277 | 25941 ft | 360 kts | 352° |
| 2026-05-07 18:45 | 54.76633 | 49.72397 | 25860 ft | 348 kts | 343° |
| 2026-05-07 18:45 | 54.78888 | 49.71068 | 25803 ft | 337 kts | 341° |
| 2026-05-07 18:46 | 54.81032 | 49.69736 | 25731 ft | 327 kts | 340° |
| 2026-05-07 18:46 | 54.83138 | 49.68416 | 25632 ft | 317 kts | 341° |
| 2026-05-07 18:46 | 54.85197 | 49.67132 | 25367 ft | 314 kts | 341° |
| 2026-05-07 18:46 | 54.87258 | 49.65854 | 25039 ft | 314 kts | 341° |
| 2026-05-07 18:47 | 54.89320 | 49.64581 | 25001 ft | 318 kts | 341° |
| 2026-05-07 18:47 | 54.91417 | 49.63290 | 24974 ft | 320 kts | 341° |
| 2026-05-07 18:47 | 54.93504 | 49.62007 | 24965 ft | 316 kts | 341° |
| 2026-05-07 18:47 | 54.95567 | 49.60738 | 24957 ft | 314 kts | 341° |
| 2026-05-07 18:48 | 54.97630 | 49.59469 | 24969 ft | 314 kts | 341° |
| 2026-05-07 18:48 | 54.99694 | 49.58199 | 24970 ft | 315 kts | 341° |
| 2026-05-07 18:48 | 55.01761 | 49.56925 | 24968 ft | 316 kts | 340° |
| 2026-05-07 18:48 | 55.03831 | 49.55648 | 24969 ft | 316 kts | 340° |
| 2026-05-07 18:49 | 55.05881 | 49.54383 | 24970 ft | 317 kts | 340° |
| 2026-05-07 18:49 | 55.07957 | 49.53100 | 24966 ft | 317 kts | 340° |
| 2026-05-07 18:49 | 55.10035 | 49.51814 | 24963 ft | 317 kts | 340° |
| 2026-05-07 18:49 | 55.12119 | 49.50523 | 24966 ft | 318 kts | 340° |
| 2026-05-07 18:50 | 55.14201 | 49.49233 | 24967 ft | 318 kts | 340° |
| 2026-05-07 18:50 | 55.16285 | 49.47939 | 24961 ft | 318 kts | 340° |
| 2026-05-07 18:50 | 55.18405 | 49.46890 | 24945 ft | 318 kts | 354° |
| 2026-05-07 18:50 | 55.20593 | 49.47214 | 24964 ft | 318 kts | 17° |
| 2026-05-07 18:51 | 55.22553 | 49.48979 | 24957 ft | 319 kts | 39° |
| 2026-05-07 18:51 | 55.23977 | 49.51932 | 24959 ft | 320 kts | 62° |
| 2026-05-07 18:51 | 55.24640 | 49.55635 | 24964 ft | 321 kts | 85° |
| 2026-05-07 18:51 | 55.24426 | 49.59514 | 24966 ft | 322 kts | 108° |
| 2026-05-07 18:52 | 55.23358 | 49.62947 | 24968 ft | 323 kts | 131° |
| 2026-05-07 18:52 | 55.21635 | 49.65436 | 24968 ft | 324 kts | 154° |
| 2026-05-07 18:52 | 55.19584 | 49.66925 | 24983 ft | 324 kts | 160° |
| 2026-05-07 18:52 | 55.17446 | 49.68239 | 24971 ft | 327 kts | 161° |
| 2026-05-07 18:53 | 55.15289 | 49.69542 | 24968 ft | 329 kts | 161° |
| 2026-05-07 18:53 | 55.13127 | 49.70879 | 24961 ft | 330 kts | 160° |
| 2026-05-07 18:53 | 55.10971 | 49.72236 | 24962 ft | 331 kts | 160° |
| 2026-05-07 18:53 | 55.08804 | 49.73607 | 24961 ft | 331 kts | 160° |
| 2026-05-07 18:54 | 55.06564 | 49.74394 | 24949 ft | 329 kts | 182° |
| 2026-05-07 18:54 | 55.04360 | 49.73538 | 24935 ft | 323 kts | 206° |
| 2026-05-07 18:54 | 55.02569 | 49.71272 | 24697 ft | 318 kts | 230° |
| 2026-05-07 18:54 | 55.01447 | 49.68046 | 24339 ft | 316 kts | 252° |
| 2026-05-07 18:55 | 55.01105 | 49.64302 | 23968 ft | 315 kts | 274° |
| 2026-05-07 18:55 | 55.01592 | 49.60626 | 23625 ft | 312 kts | 296° |
| 2026-05-07 18:55 | 55.02820 | 49.57551 | 23289 ft | 310 kts | 316° |
| 2026-05-07 18:55 | 55.04571 | 49.55408 | 22940 ft | 307 kts | 336° |
| 2026-05-07 18:56 | 55.06548 | 49.54048 | 22634 ft | 305 kts | 340° |
| 2026-05-07 18:56 | 55.08546 | 49.52821 | 22301 ft | 304 kts | 340° |
| 2026-05-07 18:56 | 55.10534 | 49.51604 | 22019 ft | 301 kts | 340° |
| 2026-05-07 18:56 | 55.12515 | 49.50364 | 21990 ft | 305 kts | 339° |
| 2026-05-07 18:57 | 55.14507 | 49.49097 | 21963 ft | 303 kts | 339° |
| 2026-05-07 18:57 | 55.16484 | 49.47831 | 21947 ft | 301 kts | 339° |
| 2026-05-07 18:57 | 55.18464 | 49.46871 | 21941 ft | 301 kts | 356° |
| 2026-05-07 18:57 | 55.20541 | 49.47333 | 21970 ft | 305 kts | 19° |
| 2026-05-07 18:58 | 55.22361 | 49.49228 | 21962 ft | 309 kts | 43° |
| 2026-05-07 18:58 | 55.23618 | 49.52274 | 21970 ft | 312 kts | 66° |
| 2026-05-07 18:58 | 55.24219 | 49.55930 | 21980 ft | 313 kts | 73° |
| 2026-05-07 18:58 | 55.24976 | 49.59495 | 21925 ft | 310 kts | 63° |
| 2026-05-07 18:59 | 55.26028 | 49.62760 | 21700 ft | 307 kts | 54° |
| 2026-05-07 18:59 | 55.27353 | 49.65669 | 21352 ft | 305 kts | 45° |
| 2026-05-07 18:59 | 55.28924 | 49.68153 | 21020 ft | 303 kts | 35° |
| 2026-05-07 18:59 | 55.30684 | 49.70103 | 20989 ft | 305 kts | 25° |
| 2026-05-07 19:00 | 55.32631 | 49.71553 | 20963 ft | 303 kts | 16° |
| 2026-05-07 19:00 | 55.34664 | 49.72415 | 20954 ft | 299 kts | 6° |
| 2026-05-07 19:00 | 55.36731 | 49.72672 | 20955 ft | 298 kts | 357° |
| 2026-05-07 19:00 | 55.38787 | 49.72324 | 20963 ft | 297 kts | 347° |
| 2026-05-07 19:01 | 55.40784 | 49.71379 | 20966 ft | 297 kts | 338° |
| 2026-05-07 19:01 | 55.42656 | 49.69866 | 20967 ft | 296 kts | 328° |
| 2026-05-07 19:01 | 55.44355 | 49.67827 | 20965 ft | 296 kts | 319° |
| 2026-05-07 19:01 | 55.45833 | 49.65321 | 20963 ft | 295 kts | 310° |
| 2026-05-07 19:02 | 55.47050 | 49.62415 | 20964 ft | 294 kts | 300° |
| 2026-05-07 19:02 | 55.47968 | 49.59206 | 20965 ft | 294 kts | 291° |
| 2026-05-07 19:02 | 55.48561 | 49.55817 | 20961 ft | 294 kts | 282° |
| 2026-05-07 19:02 | 55.48828 | 49.52246 | 20963 ft | 293 kts | 272° |
| 2026-05-07 19:03 | 55.48748 | 49.48663 | 20967 ft | 293 kts | 263° |
| 2026-05-07 19:03 | 55.48326 | 49.45153 | 20959 ft | 293 kts | 254° |
| 2026-05-07 19:03 | 55.47573 | 49.41810 | 20962 ft | 294 kts | 244° |
| 2026-05-07 19:03 | 55.46510 | 49.38726 | 20961 ft | 295 kts | 236° |
| 2026-05-07 19:04 | 55.45289 | 49.35834 | 20976 ft | 295 kts | 234° |
| 2026-05-07 19:04 | 55.44036 | 49.32969 | 20964 ft | 295 kts | 234° |
| 2026-05-07 19:04 | 55.42778 | 49.30111 | 20962 ft | 295 kts | 234° |
| 2026-05-07 19:04 | 55.41520 | 49.27264 | 20963 ft | 295 kts | 234° |
| 2026-05-07 19:05 | 55.40258 | 49.24411 | 20963 ft | 295 kts | 234° |
| 2026-05-07 19:05 | 55.38994 | 49.21556 | 20962 ft | 296 kts | 234° |
| 2026-05-07 19:05 | 55.37730 | 49.18702 | 20961 ft | 296 kts | 234° |
| 2026-05-07 19:05 | 55.36501 | 49.15847 | 20958 ft | 296 kts | 238° |
| 2026-05-07 19:06 | 55.35506 | 49.12689 | 20959 ft | 295 kts | 248° |
| 2026-05-07 19:06 | 55.34491 | 49.05764 | 20963 ft | 294 kts | 266° |
| 2026-05-07 19:06 | 55.34495 | 49.02186 | 20960 ft | 293 kts | 276° |
| 2026-05-07 19:07 | 55.34842 | 48.98666 | 20960 ft | 293 kts | 285° |
| 2026-05-07 19:07 | 55.35524 | 48.95293 | 20967 ft | 293 kts | 295° |
| 2026-05-07 19:07 | 55.36517 | 48.92178 | 20927 ft | 290 kts | 304° |
| 2026-05-07 19:07 | 55.37768 | 48.89427 | 20724 ft | 288 kts | 311° |
| 2026-05-07 19:08 | 55.39125 | 48.86904 | 20413 ft | 287 kts | 313° |
| 2026-05-07 19:08 | 55.40521 | 48.84388 | 20069 ft | 288 kts | 313° |
| 2026-05-07 19:08 | 55.41921 | 48.81882 | 19798 ft | 286 kts | 314° |
| 2026-05-07 19:08 | 55.43310 | 48.79405 | 19540 ft | 284 kts | 314° |
| 2026-05-07 19:09 | 55.44696 | 48.76939 | 19263 ft | 282 kts | 314° |
| 2026-05-07 19:09 | 55.46078 | 48.74484 | 18995 ft | 281 kts | 314° |
| 2026-05-07 19:09 | 55.47451 | 48.72045 | 18699 ft | 280 kts | 314° |
| 2026-05-07 19:09 | 55.48823 | 48.69610 | 18432 ft | 279 kts | 314° |
| 2026-05-07 19:10 | 55.50207 | 48.67155 | 17886 ft | 287 kts | 314° |
| 2026-05-07 19:10 | 55.51613 | 48.64656 | 17185 ft | 297 kts | 314° |
| 2026-05-07 19:10 | 55.53107 | 48.61989 | 16281 ft | 314 kts | 314° |
| 2026-05-07 19:10 | 55.54676 | 48.59174 | 15486 ft | 326 kts | 314° |
| 2026-05-07 19:11 | 55.56236 | 48.56364 | 15389 ft | 314 kts | 314° |
| 2026-05-07 19:11 | 55.57741 | 48.53655 | 15307 ft | 303 kts | 314° |
| 2026-05-07 19:11 | 55.59191 | 48.51043 | 15074 ft | 297 kts | 314° |
| 2026-05-07 19:11 | 55.60652 | 48.48410 | 14576 ft | 301 kts | 314° |
| 2026-05-07 19:12 | 55.62127 | 48.45748 | 14101 ft | 305 kts | 314° |
| 2026-05-07 19:12 | 55.63615 | 48.43056 | 13621 ft | 308 kts | 314° |
| 2026-05-07 19:12 | 55.65117 | 48.40335 | 13093 ft | 310 kts | 314° |
| 2026-05-07 19:12 | 55.66675 | 48.37678 | 12572 ft | 311 kts | 319° |
| 2026-05-07 19:13 | 55.68420 | 48.35372 | 11800 ft | 319 kts | 327° |
| 2026-05-07 19:13 | 55.70398 | 48.33491 | 10794 ft | 336 kts | 335° |
| 2026-05-07 19:13 | 55.72640 | 48.32061 | 9804 ft | 348 kts | 344° |
| 2026-05-07 19:13 | 55.75041 | 48.31186 | 8749 ft | 358 kts | 352° |
| 2026-05-07 19:14 | 55.77565 | 48.30897 | 7718 ft | 367 kts | 359° |
| 2026-05-07 19:14 | 55.80087 | 48.31267 | 7297 ft | 359 kts | 7° |
| 2026-05-07 19:14 | 55.82468 | 48.32246 | 7142 ft | 343 kts | 16° |
| 2026-05-07 19:14 | 55.84553 | 48.34068 | 6986 ft | 331 kts | 38° |
| 2026-05-07 19:15 | 55.85882 | 48.37261 | 6953 ft | 315 kts | 68° |
| 2026-05-07 19:15 | 55.86207 | 48.40902 | 6964 ft | 292 kts | 90° |
| 2026-05-07 19:15 | 55.86106 | 48.44375 | 6944 ft | 271 kts | 93° |
| 2026-05-07 19:15 | 55.85961 | 48.47597 | 6941 ft | 251 kts | 94° |
| 2026-05-07 19:16 | 55.85817 | 48.50575 | 6938 ft | 233 kts | 94° |
| 2026-05-07 19:16 | 55.85676 | 48.53400 | 6950 ft | 227 kts | 94° |
| 2026-05-07 19:16 | 55.85534 | 48.56188 | 6964 ft | 225 kts | 94° |
| 2026-05-07 19:16 | 55.85391 | 48.58950 | 6957 ft | 222 kts | 94° |
| 2026-05-07 19:17 | 55.85249 | 48.61684 | 6956 ft | 221 kts | 94° |
| 2026-05-07 19:17 | 55.85108 | 48.64384 | 6952 ft | 218 kts | 94° |
| 2026-05-07 19:17 | 55.84966 | 48.67064 | 6953 ft | 217 kts | 94° |
| 2026-05-07 19:17 | 55.84826 | 48.69690 | 6951 ft | 215 kts | 94° |
| 2026-05-07 19:18 | 55.84684 | 48.72326 | 6932 ft | 214 kts | 94° |
| 2026-05-07 19:18 | 55.84542 | 48.74921 | 6841 ft | 208 kts | 94° |
| 2026-05-07 19:18 | 55.84402 | 48.77471 | 6645 ft | 206 kts | 94° |
| 2026-05-07 19:18 | 55.84070 | 48.79883 | 6609 ft | 199 kts | 126° |
| 2026-05-07 19:19 | 55.82916 | 48.81286 | 6682 ft | 220 kts | 171° |
| 2026-05-07 19:19 | 55.81260 | 48.81359 | 6682 ft | 259 kts | 185° |
| 2026-05-07 19:19 | 55.79325 | 48.81321 | 6665 ft | 300 kts | 170° |
| 2026-05-07 19:19 | 55.77250 | 48.82419 | 6662 ft | 323 kts | 168° |
| 2026-05-07 19:20 | 55.75087 | 48.83141 | 7306 ft | 315 kts | 170° |
| 2026-05-07 19:20 | 55.72906 | 48.83858 | 8193 ft | 306 kts | 169° |
| 2026-05-07 19:20 | 55.70747 | 48.84596 | 8792 ft | 326 kts | 170° |
| 2026-05-07 19:20 | 55.68521 | 48.85199 | 9771 ft | 323 kts | 176° |
| 2026-05-07 19:21 | 55.66267 | 48.84974 | 10468 ft | 327 kts | 194° |
| 2026-05-07 19:21 | 55.64104 | 48.83574 | 10894 ft | 340 kts | 209° |
| 2026-05-07 19:21 | 55.62012 | 48.81579 | 11601 ft | 336 kts | 209° |
| 2026-05-07 19:21 | 55.59911 | 48.79654 | 11419 ft | 345 kts | 209° |
| 2026-05-07 19:22 | 55.57751 | 48.77791 | 10989 ft | 345 kts | 206° |
| 2026-05-07 19:22 | 55.55618 | 48.75867 | 10809 ft | 336 kts | 214° |
| 2026-05-07 19:22 | 55.53885 | 48.73509 | 11298 ft | 306 kts | 224° |
| 2026-05-07 19:22 | 55.52461 | 48.70721 | 11111 ft | 303 kts | 238° |
| 2026-05-07 19:23 | 55.51509 | 48.67481 | 11003 ft | 296 kts | 252° |
| 2026-05-07 19:23 | 55.51122 | 48.63967 | 10967 ft | 286 kts | 271° |
| 2026-05-07 19:23 | 55.51448 | 48.60500 | 10495 ft | 293 kts | 295° |
| 2026-05-07 19:23 | 55.52517 | 48.57489 | 10375 ft | 288 kts | 311° |
| 2026-05-07 19:24 | 55.53974 | 48.55146 | 10353 ft | 281 kts | 325° |
| 2026-05-07 19:24 | 55.55698 | 48.53443 | 9987 ft | 289 kts | 335° |
| 2026-05-07 19:24 | 55.57541 | 48.52141 | 10099 ft | 277 kts | 339° |
| 2026-05-07 19:24 | 55.59342 | 48.51077 | 10218 ft | 265 kts | 341° |
| 2026-05-07 19:25 | 55.60980 | 48.50185 | 10947 ft | 229 kts | 344° |
| 2026-05-07 19:25 | 55.62447 | 48.49432 | 11849 ft | 215 kts | 336° |
| 2026-05-07 19:25 | 55.63638 | 48.48153 | 13162 ft | 194 kts | 319° |
| 2026-05-07 19:25 | 55.64679 | 48.46351 | 13470 ft | 223 kts | 311° |
| 2026-05-07 19:26 | 55.65715 | 48.44118 | 13992 ft | 248 kts | 307° |
| 2026-05-07 19:26 | 55.66792 | 48.41538 | 12484 ft | 282 kts | 306° |
| 2026-05-07 19:26 | 55.67939 | 48.38255 | 11270 ft | 323 kts | 299° |
| 2026-05-07 19:26 | 55.68945 | 48.34696 | 10794 ft | 323 kts | 292° |
| 2026-05-07 19:27 | 55.69575 | 48.30878 | 10284 ft | 324 kts | 282° |
| 2026-05-07 19:27 | 55.69790 | 48.26901 | 9783 ft | 325 kts | 272° |
| 2026-05-07 19:27 | 55.69684 | 48.22845 | 9006 ft | 333 kts | 265° |
| 2026-05-07 19:27 | 55.69308 | 48.18880 | 8917 ft | 318 kts | 259° |
| 2026-05-07 19:28 | 55.68778 | 48.15136 | 8643 ft | 311 kts | 255° |
| 2026-05-07 19:28 | 55.68086 | 48.11552 | 8216 ft | 312 kts | 248° |
| 2026-05-07 19:28 | 55.67013 | 48.08200 | 7630 ft | 317 kts | 235° |
| 2026-05-07 19:28 | 55.65549 | 48.05255 | 7082 ft | 321 kts | 223° |
| 2026-05-07 19:29 | 55.63695 | 48.03045 | 6541 ft | 325 kts | 204° |
| 2026-05-07 19:29 | 55.61538 | 48.02434 | 6747 ft | 303 kts | 174° |
| 2026-05-07 19:29 | 55.59575 | 48.03580 | 6544 ft | 299 kts | 148° |
| 2026-05-07 19:29 | 55.58082 | 48.06016 | 6419 ft | 290 kts | 124° |
| 2026-05-07 19:30 | 55.57324 | 48.09260 | 6081 ft | 288 kts | 99° |
| 2026-05-07 19:30 | 55.57363 | 48.12785 | 5683 ft | 287 kts | 82° |
| 2026-05-07 19:30 | 55.57583 | 48.16229 | 5422 ft | 283 kts | 85° |
| 2026-05-07 19:30 | 55.57700 | 48.19610 | 5403 ft | 270 kts | 88° |
| 2026-05-07 19:31 | 55.57712 | 48.22843 | 5339 ft | 259 kts | 90° |
| 2026-05-07 19:31 | 55.57689 | 48.26022 | 4966 ft | 263 kts | 90° |
| 2026-05-07 19:31 | 55.57631 | 48.29252 | 4542 ft | 267 kts | 92° |
| 2026-05-07 19:31 | 55.57557 | 48.32530 | 4305 ft | 265 kts | 93° |
| 2026-05-07 19:32 | 55.57454 | 48.35736 | 4195 ft | 258 kts | 95° |
| 2026-05-07 19:32 | 55.57324 | 48.38878 | 3996 ft | 255 kts | 94° |
| 2026-05-07 19:32 | 55.57244 | 48.41960 | 3973 ft | 248 kts | 90° |
| 2026-05-07 19:32 | 55.57454 | 48.44951 | 3909 ft | 243 kts | 77° |
| 2026-05-07 19:33 | 55.57887 | 48.47778 | 3774 ft | 240 kts | 74° |
| 2026-05-07 19:33 | 55.58375 | 48.50624 | 3438 ft | 246 kts | 73° |
| 2026-05-07 19:33 | 55.58937 | 48.53444 | 3279 ft | 241 kts | 70° |
| 2026-05-07 19:33 | 55.59556 | 48.56182 | 3168 ft | 237 kts | 68° |
| 2026-05-07 19:34 | 55.60223 | 48.58865 | 2963 ft | 239 kts | 67° |
| 2026-05-07 19:34 | 55.60965 | 48.61508 | 2816 ft | 241 kts | 62° |
| 2026-05-07 19:34 | 55.61805 | 48.64087 | 2647 ft | 239 kts | 60° |
| 2026-05-07 19:34 | 55.62651 | 48.66513 | 2770 ft | 228 kts | 59° |
| 2026-05-07 19:35 | 55.63523 | 48.68845 | 2662 ft | 225 kts | 57° |
| 2026-05-07 19:35 | 55.64419 | 48.71042 | 2651 ft | 218 kts | 55° |
| 2026-05-07 19:35 | 55.65300 | 48.73185 | 2558 ft | 214 kts | 57° |
| 2026-05-07 19:35 | 55.66004 | 48.75477 | 2542 ft | 204 kts | 71° |
| 2026-05-07 19:36 | 55.66463 | 48.77915 | 2727 ft | 212 kts | 77° |
| 2026-05-07 19:36 | 55.66694 | 48.80479 | 2713 ft | 211 kts | 87° |
| 2026-05-07 19:36 | 55.66775 | 48.83063 | 2679 ft | 208 kts | 89° |
| 2026-05-07 19:36 | 55.66830 | 48.85599 | 2653 ft | 204 kts | 90° |
| 2026-05-07 19:37 | 55.66810 | 48.88158 | 2581 ft | 214 kts | 94° |
| 2026-05-07 19:37 | 55.66763 | 48.90907 | 2281 ft | 228 kts | 95° |
| 2026-05-07 19:37 | 55.66682 | 48.93677 | 2369 ft | 224 kts | 96° |
| 2026-05-07 19:37 | 55.66578 | 48.96378 | 2572 ft | 217 kts | 94° |
| 2026-05-07 19:38 | 55.66517 | 48.99067 | 2377 ft | 220 kts | 94° |
| 2026-05-07 19:38 | 55.66452 | 49.01776 | 2254 ft | 220 kts | 95° |
| 2026-05-07 19:38 | 55.66389 | 49.04472 | 2149 ft | 218 kts | 94° |
| 2026-05-07 19:38 | 55.66280 | 49.07116 | 2092 ft | 211 kts | 97° |
| 2026-05-07 19:39 | 55.66169 | 49.09653 | 2133 ft | 204 kts | 95° |
| 2026-05-07 19:39 | 55.66107 | 49.12115 | 2044 ft | 199 kts | 95° |
| 2026-05-07 19:39 | 55.65992 | 49.14547 | 1963 ft | 192 kts | 101° |
| 2026-05-07 19:39 | 55.65606 | 49.16742 | 1956 ft | 180 kts | 118° |
| 2026-05-07 19:40 | 55.64961 | 49.18598 | 1742 ft | 182 kts | 129° |
| 2026-05-07 19:40 | 55.64072 | 49.20250 | 1424 ft | 191 kts | 137° |
| 2026-05-07 19:40 | 55.63077 | 49.21882 | 1130 ft | 197 kts | 135° |
| 2026-05-07 19:40 | 55.62194 | 49.23746 | 744 ft | 198 kts | 123° |
| 2026-05-07 19:41 | 55.61454 | 49.25742 | 493 ft | 188 kts | 124° |
| 2026-05-07 19:41 | 55.60752 | 49.27561 | 429 ft | 169 kts | 123° |
| 2026-05-07 19:41 | 55.60137 | 49.29157 | 415 ft | 123 kts | 126° |
| 2026-05-07 19:41 | 55.59920 | 49.29695 | 415 ft | 35 kts | 124° |
| 2026-05-07 19:42 | 55.59846 | 49.30050 | 410 ft | 27 kts | 55° |
| 2026-05-07 19:42 | 55.59994 | 49.30109 | 412 ft | 22 kts | 338° |
| 2026-05-07 19:42 | 55.60017 | 49.30091 | 415 ft | 0 kts | 335° |
| 2026-05-07 19:44 | 55.60017 | 49.30090 | 415 ft | 0 kts | 335° |
| 2026-05-07 19:44 | 55.60029 | 49.30081 | 412 ft | 19 kts | 335° |
| 2026-05-07 19:45 | 55.60209 | 49.29929 | 413 ft | 30 kts | 336° |
| 2026-05-07 19:45 | 55.60359 | 49.29899 | 415 ft | 16 kts | 24° |
| 2026-05-07 19:45 | 55.60445 | 49.29989 | 415 ft | 13 kts | 34° |
| 2026-05-07 19:45 | 55.60520 | 49.30080 | 415 ft | 13 kts | 34° |
| 2026-05-07 19:46 | 55.60533 | 49.30095 | 415 ft | 0 kts | 34° |
| 2026-05-07 19:47 | 55.60533 | 49.30096 | 415 ft | 0 kts | 34° |
| 2026-05-07 19:47 | 55.60535 | 49.30098 | 415 ft | 0 kts | 34° |
| 2026-05-07 19:47 | 55.60580 | 49.30112 | 410 ft | 18 kts | 347° |
| 2026-05-07 19:48 | 55.60619 | 49.30034 | 415 ft | 0 kts | 333° |
| 2026-05-07 19:48 | 55.60621 | 49.30033 | 415 ft | 0 kts | 343° |
| 2026-05-07 19:48 | 55.60624 | 49.30033 | 415 ft | 1 kts | 354° |
| 2026-05-07 19:49 | 55.60631 | 49.30035 | 415 ft | 1 kts | 8° |
| 2026-05-07 19:49 | 55.60637 | 49.30039 | 410 ft | 1 kts | 19° |
| 2026-05-07 19:49 | 55.60673 | 49.30078 | 413 ft | 0 kts | 42° |